sensor_id;sensor_type;location;lat;lon;timestamp;temperature;humidity
8103;DHT22;4094;49.948;11.574;2023-08-08T00:01:02;15.60;79.00
8103;DHT22;4094;49.948;11.574;2023-08-08T00:03:32;15.60;79.10
8103;DHT22;4094;49.948;11.574;2023-08-08T00:06:02;15.60;78.90
8103;DHT22;4094;49.948;11.574;2023-08-08T00:08:33;15.50;78.80
8103;DHT22;4094;49.948;11.574;2023-08-08T00:11:03;15.60;79.20
8103;DHT22;4094;49.948;11.574;2023-08-08T00:13:32;15.60;79.20
8103;DHT22;4094;49.948;11.574;2023-08-08T00:16:01;15.60;79.00
8103;DHT22;4094;49.948;11.574;2023-08-08T00:18:31;15.60;79.00
8103;DHT22;4094;49.948;11.574;2023-08-08T00:21:00;15.60;79.00
8103;DHT22;4094;49.948;11.574;2023-08-08T00:23:30;15.60;78.90
8103;DHT22;4094;49.948;11.574;2023-08-08T00:26:00;15.60;78.80
8103;DHT22;4094;49.948;11.574;2023-08-08T00:28:30;15.60;78.80
8103;DHT22;4094;49.948;11.574;2023-08-08T00:30:59;15.60;78.70
8103;DHT22;4094;49.948;11.574;2023-08-08T00:33:29;15.60;78.80
8103;DHT22;4094;49.948;11.574;2023-08-08T00:35:58;15.60;78.50
8103;DHT22;4094;49.948;11.574;2023-08-08T00:38:28;15.60;78.40
8103;DHT22;4094;49.948;11.574;2023-08-08T00:40:57;15.60;78.50
8103;DHT22;4094;49.948;11.574;2023-08-08T00:43:28;15.60;78.90
8103;DHT22;4094;49.948;11.574;2023-08-08T00:45:57;15.60;79.10
8103;DHT22;4094;49.948;11.574;2023-08-08T00:48:27;15.60;79.00
8103;DHT22;4094;49.948;11.574;2023-08-08T00:50:56;15.60;79.00
8103;DHT22;4094;49.948;11.574;2023-08-08T00:53:27;15.60;78.90
8103;DHT22;4094;49.948;11.574;2023-08-08T00:56:00;15.60;79.60
8103;DHT22;4094;49.948;11.574;2023-08-08T00:58:30;15.60;79.00
8103;DHT22;4094;49.948;11.574;2023-08-08T01:01:00;15.60;79.30
8103;DHT22;4094;49.948;11.574;2023-08-08T01:03:29;15.60;79.30
8103;DHT22;4094;49.948;11.574;2023-08-08T01:06:02;15.60;79.30
8103;DHT22;4094;49.948;11.574;2023-08-08T01:08:36;15.60;79.40
8103;DHT22;4094;49.948;11.574;2023-08-08T01:11:08;15.60;79.40
8103;DHT22;4094;49.948;11.574;2023-08-08T01:13:40;15.60;79.60
8103;DHT22;4094;49.948;11.574;2023-08-08T01:16:10;15.60;79.90
8103;DHT22;4094;49.948;11.574;2023-08-08T01:18:41;15.60;79.90
8103;DHT22;4094;49.948;11.574;2023-08-08T01:21:12;15.60;79.90
8103;DHT22;4094;49.948;11.574;2023-08-08T01:23:46;15.60;79.80
8103;DHT22;4094;49.948;11.574;2023-08-08T01:26:22;15.60;79.60
8103;DHT22;4094;49.948;11.574;2023-08-08T01:28:53;15.60;79.60
8103;DHT22;4094;49.948;11.574;2023-08-08T01:31:23;15.60;79.60
8103;DHT22;4094;49.948;11.574;2023-08-08T01:33:52;15.60;79.20
8103;DHT22;4094;49.948;11.574;2023-08-08T01:36:32;15.60;79.30
8103;DHT22;4094;49.948;11.574;2023-08-08T01:39:09;15.50;79.40
8103;DHT22;4094;49.948;11.574;2023-08-08T01:41:43;15.50;79.50
8103;DHT22;4094;49.948;11.574;2023-08-08T01:44:15;15.50;79.60
8103;DHT22;4094;49.948;11.574;2023-08-08T01:46:46;15.50;79.70
8103;DHT22;4094;49.948;11.574;2023-08-08T01:49:15;15.50;79.90
8103;DHT22;4094;49.948;11.574;2023-08-08T01:51:44;15.50;80.10
8103;DHT22;4094;49.948;11.574;2023-08-08T01:54:13;15.50;80.10
8103;DHT22;4094;49.948;11.574;2023-08-08T01:56:44;15.50;80.20
8103;DHT22;4094;49.948;11.574;2023-08-08T01:59:13;15.50;80.10
8103;DHT22;4094;49.948;11.574;2023-08-08T02:01:43;15.50;80.00
8103;DHT22;4094;49.948;11.574;2023-08-08T02:04:12;15.50;80.10
8103;DHT22;4094;49.948;11.574;2023-08-08T02:06:42;15.50;80.20
8103;DHT22;4094;49.948;11.574;2023-08-08T02:09:11;15.50;80.20
8103;DHT22;4094;49.948;11.574;2023-08-08T02:11:43;15.50;80.30
8103;DHT22;4094;49.948;11.574;2023-08-08T02:14:12;15.50;80.20
8103;DHT22;4094;49.948;11.574;2023-08-08T02:16:42;15.50;80.20
8103;DHT22;4094;49.948;11.574;2023-08-08T02:19:11;15.50;80.00
8103;DHT22;4094;49.948;11.574;2023-08-08T02:21:40;15.50;80.10
8103;DHT22;4094;49.948;11.574;2023-08-08T02:24:10;15.50;80.10
8103;DHT22;4094;49.948;11.574;2023-08-08T02:26:39;15.50;80.20
8103;DHT22;4094;49.948;11.574;2023-08-08T02:29:10;15.50;80.40
8103;DHT22;4094;49.948;11.574;2023-08-08T02:31:39;15.50;80.50
8103;DHT22;4094;49.948;11.574;2023-08-08T02:34:08;15.50;80.60
8103;DHT22;4094;49.948;11.574;2023-08-08T02:36:38;15.50;80.60
8103;DHT22;4094;49.948;11.574;2023-08-08T02:39:07;15.50;81.40
8103;DHT22;4094;49.948;11.574;2023-08-08T02:41:36;15.60;80.70
8103;DHT22;4094;49.948;11.574;2023-08-08T02:44:06;15.60;80.60
8103;DHT22;4094;49.948;11.574;2023-08-08T02:46:37;15.50;80.40
8103;DHT22;4094;49.948;11.574;2023-08-08T02:49:07;15.50;80.40
8103;DHT22;4094;49.948;11.574;2023-08-08T02:51:36;15.50;81.10
8103;DHT22;4094;49.948;11.574;2023-08-08T02:54:05;15.50;80.40
8103;DHT22;4094;49.948;11.574;2023-08-08T02:56:36;15.50;80.40
8103;DHT22;4094;49.948;11.574;2023-08-08T02:59:05;15.50;80.30
8103;DHT22;4094;49.948;11.574;2023-08-08T03:01:35;15.50;80.60
8103;DHT22;4094;49.948;11.574;2023-08-08T03:04:16;15.50;80.70
8103;DHT22;4094;49.948;11.574;2023-08-08T03:06:45;15.50;80.80
8103;DHT22;4094;49.948;11.574;2023-08-08T03:09:15;15.50;80.80
8103;DHT22;4094;49.948;11.574;2023-08-08T03:11:45;15.50;80.80
8103;DHT22;4094;49.948;11.574;2023-08-08T03:14:16;15.50;80.80
8103;DHT22;4094;49.948;11.574;2023-08-08T03:16:45;15.50;80.80
8103;DHT22;4094;49.948;11.574;2023-08-08T03:19:16;15.50;80.80
8103;DHT22;4094;49.948;11.574;2023-08-08T03:21:45;15.50;80.90
8103;DHT22;4094;49.948;11.574;2023-08-08T03:24:14;15.50;80.90
8103;DHT22;4094;49.948;11.574;2023-08-08T03:26:44;15.50;80.80
8103;DHT22;4094;49.948;11.574;2023-08-08T03:29:13;15.50;80.80
8103;DHT22;4094;49.948;11.574;2023-08-08T03:31:47;15.50;80.70
8103;DHT22;4094;49.948;11.574;2023-08-08T03:34:19;15.50;80.80
8103;DHT22;4094;49.948;11.574;2023-08-08T03:36:49;15.50;80.70
8103;DHT22;4094;49.948;11.574;2023-08-08T03:39:19;15.50;81.30
8103;DHT22;4094;49.948;11.574;2023-08-08T03:41:48;15.50;80.70
8103;DHT22;4094;49.948;11.574;2023-08-08T03:44:17;15.50;80.70
8103;DHT22;4094;49.948;11.574;2023-08-08T03:46:47;15.40;80.50
8103;DHT22;4094;49.948;11.574;2023-08-08T03:49:20;15.40;80.50
8103;DHT22;4094;49.948;11.574;2023-08-08T03:51:49;15.40;80.50
8103;DHT22;4094;49.948;11.574;2023-08-08T03:54:18;15.40;80.60
8103;DHT22;4094;49.948;11.574;2023-08-08T03:56:48;15.40;80.60
8103;DHT22;4094;49.948;11.574;2023-08-08T03:59:17;15.40;80.70
8103;DHT22;4094;49.948;11.574;2023-08-08T04:01:46;15.40;80.80
8103;DHT22;4094;49.948;11.574;2023-08-08T04:04:17;15.40;80.80
8103;DHT22;4094;49.948;11.574;2023-08-08T04:06:47;15.40;80.50
8103;DHT22;4094;49.948;11.574;2023-08-08T04:09:17;15.40;80.30
8103;DHT22;4094;49.948;11.574;2023-08-08T04:11:46;15.40;80.30
8103;DHT22;4094;49.948;11.574;2023-08-08T04:14:15;15.30;80.20
8103;DHT22;4094;49.948;11.574;2023-08-08T04:16:44;15.40;80.10
8103;DHT22;4094;49.948;11.574;2023-08-08T04:19:13;15.30;80.00
8103;DHT22;4094;49.948;11.574;2023-08-08T04:21:43;15.30;80.30
8103;DHT22;4094;49.948;11.574;2023-08-08T04:24:13;15.30;80.20
8103;DHT22;4094;49.948;11.574;2023-08-08T04:26:42;15.30;80.30
8103;DHT22;4094;49.948;11.574;2023-08-08T04:29:12;15.30;80.70
8103;DHT22;4094;49.948;11.574;2023-08-08T04:31:41;15.30;80.50
8103;DHT22;4094;49.948;11.574;2023-08-08T04:34:10;15.30;80.40
8103;DHT22;4094;49.948;11.574;2023-08-08T04:36:39;15.30;80.50
8103;DHT22;4094;49.948;11.574;2023-08-08T04:39:08;15.30;80.30
8103;DHT22;4094;49.948;11.574;2023-08-08T04:41:39;15.30;81.30
8103;DHT22;4094;49.948;11.574;2023-08-08T04:44:08;15.40;81.00
8103;DHT22;4094;49.948;11.574;2023-08-08T04:46:37;15.40;80.80
8103;DHT22;4094;49.948;11.574;2023-08-08T04:49:06;15.40;80.80
8103;DHT22;4094;49.948;11.574;2023-08-08T04:51:35;15.40;81.00
8103;DHT22;4094;49.948;11.574;2023-08-08T04:54:04;15.40;81.00
8103;DHT22;4094;49.948;11.574;2023-08-08T04:56:33;15.40;81.10
8103;DHT22;4094;49.948;11.574;2023-08-08T04:59:04;15.50;81.30
8103;DHT22;4094;49.948;11.574;2023-08-08T05:01:33;15.50;81.30
8103;DHT22;4094;49.948;11.574;2023-08-08T05:04:02;15.50;81.40
8103;DHT22;4094;49.948;11.574;2023-08-08T05:06:31;15.50;81.50
8103;DHT22;4094;49.948;11.574;2023-08-08T05:09:00;15.60;81.60
8103;DHT22;4094;49.948;11.574;2023-08-08T05:11:30;15.60;81.60
8103;DHT22;4094;49.948;11.574;2023-08-08T05:13:59;15.70;81.60
8103;DHT22;4094;49.948;11.574;2023-08-08T05:16:29;15.70;81.50
8103;DHT22;4094;49.948;11.574;2023-08-08T05:18:58;15.80;81.70
8103;DHT22;4094;49.948;11.574;2023-08-08T05:21:27;15.70;81.70
8103;DHT22;4094;49.948;11.574;2023-08-08T05:23:56;15.80;81.80
8103;DHT22;4094;49.948;11.574;2023-08-08T05:26:25;15.90;81.80
8103;DHT22;4094;49.948;11.574;2023-08-08T05:28:55;15.90;81.50
8103;DHT22;4094;49.948;11.574;2023-08-08T05:31:24;16.00;81.30
8103;DHT22;4094;49.948;11.574;2023-08-08T05:33:54;16.00;80.90
8103;DHT22;4094;49.948;11.574;2023-08-08T05:36:24;16.10;81.00
8103;DHT22;4094;49.948;11.574;2023-08-08T05:38:53;16.10;81.00
8103;DHT22;4094;49.948;11.574;2023-08-08T05:41:22;16.20;80.70
8103;DHT22;4094;49.948;11.574;2023-08-08T05:43:51;16.20;80.70
8103;DHT22;4094;49.948;11.574;2023-08-08T05:46:20;16.30;81.40
8103;DHT22;4094;49.948;11.574;2023-08-08T05:48:50;16.30;80.30
8103;DHT22;4094;49.948;11.574;2023-08-08T05:51:20;16.40;80.30
8103;DHT22;4094;49.948;11.574;2023-08-08T05:53:49;16.40;80.50
8103;DHT22;4094;49.948;11.574;2023-08-08T05:56:19;16.40;80.60
8103;DHT22;4094;49.948;11.574;2023-08-08T05:58:48;16.50;80.90
8103;DHT22;4094;49.948;11.574;2023-08-08T06:01:18;16.60;80.70
8103;DHT22;4094;49.948;11.574;2023-08-08T06:03:47;16.60;80.20
8103;DHT22;4094;49.948;11.574;2023-08-08T06:06:17;16.60;79.90
8103;DHT22;4094;49.948;11.574;2023-08-08T06:08:47;16.70;79.90
8103;DHT22;4094;49.948;11.574;2023-08-08T06:11:17;16.70;79.80
8103;DHT22;4094;49.948;11.574;2023-08-08T06:13:47;16.70;79.70
8103;DHT22;4094;49.948;11.574;2023-08-08T06:16:17;16.70;79.90
8103;DHT22;4094;49.948;11.574;2023-08-08T06:18:46;16.80;80.00
8103;DHT22;4094;49.948;11.574;2023-08-08T06:21:18;16.80;80.00
8103;DHT22;4094;49.948;11.574;2023-08-08T06:23:48;16.90;79.90
8103;DHT22;4094;49.948;11.574;2023-08-08T06:26:18;16.90;79.80
8103;DHT22;4094;49.948;11.574;2023-08-08T06:28:49;17.00;79.70
8103;DHT22;4094;49.948;11.574;2023-08-08T06:31:19;17.10;79.60
8103;DHT22;4094;49.948;11.574;2023-08-08T06:33:50;17.20;79.50
8103;DHT22;4094;49.948;11.574;2023-08-08T06:36:19;17.20;79.70
8103;DHT22;4094;49.948;11.574;2023-08-08T06:38:49;17.30;79.30
8103;DHT22;4094;49.948;11.574;2023-08-08T06:41:18;17.40;78.90
8103;DHT22;4094;49.948;11.574;2023-08-08T06:43:49;17.50;79.30
8103;DHT22;4094;49.948;11.574;2023-08-08T06:46:19;17.50;79.30
8103;DHT22;4094;49.948;11.574;2023-08-08T06:48:49;17.60;78.60
8103;DHT22;4094;49.948;11.574;2023-08-08T06:51:20;17.70;78.50
8103;DHT22;4094;49.948;11.574;2023-08-08T06:53:51;17.80;78.50
8103;DHT22;4094;49.948;11.574;2023-08-08T06:56:21;17.90;77.90
8103;DHT22;4094;49.948;11.574;2023-08-08T06:58:51;17.90;77.60
8103;DHT22;4094;49.948;11.574;2023-08-08T07:01:24;18.00;77.30
8103;DHT22;4094;49.948;11.574;2023-08-08T07:03:55;18.00;77.10
8103;DHT22;4094;49.948;11.574;2023-08-08T07:06:25;18.10;77.00
8103;DHT22;4094;49.948;11.574;2023-08-08T07:08:56;18.10;76.60
8103;DHT22;4094;49.948;11.574;2023-08-08T07:11:25;18.10;76.30
8103;DHT22;4094;49.948;11.574;2023-08-08T07:13:55;18.20;76.40
8103;DHT22;4094;49.948;11.574;2023-08-08T07:16:24;18.20;76.40
8103;DHT22;4094;49.948;11.574;2023-08-08T07:18:53;18.30;76.40
8103;DHT22;4094;49.948;11.574;2023-08-08T07:21:23;18.30;75.80
8103;DHT22;4094;49.948;11.574;2023-08-08T07:23:53;18.40;75.90
8103;DHT22;4094;49.948;11.574;2023-08-08T07:26:24;18.40;76.00
8103;DHT22;4094;49.948;11.574;2023-08-08T07:28:53;18.50;76.70
8103;DHT22;4094;49.948;11.574;2023-08-08T07:31:24;18.50;75.70
8103;DHT22;4094;49.948;11.574;2023-08-08T07:33:53;18.60;75.50
8103;DHT22;4094;49.948;11.574;2023-08-08T07:36:23;18.70;74.60
8103;DHT22;4094;49.948;11.574;2023-08-08T07:38:52;18.70;74.00
8103;DHT22;4094;49.948;11.574;2023-08-08T07:41:26;18.80;73.90
8103;DHT22;4094;49.948;11.574;2023-08-08T07:43:55;18.80;73.40
8103;DHT22;4094;49.948;11.574;2023-08-08T07:46:24;18.80;73.50
8103;DHT22;4094;49.948;11.574;2023-08-08T07:48:54;18.90;73.40
8103;DHT22;4094;49.948;11.574;2023-08-08T07:51:23;18.90;74.20
8103;DHT22;4094;49.948;11.574;2023-08-08T07:53:52;19.00;73.10
8103;DHT22;4094;49.948;11.574;2023-08-08T07:56:22;19.10;72.80
8103;DHT22;4094;49.948;11.574;2023-08-08T07:58:53;19.10;73.20
8103;DHT22;4094;49.948;11.574;2023-08-08T08:01:22;19.20;73.30
8103;DHT22;4094;49.948;11.574;2023-08-08T08:03:52;19.20;72.40
8103;DHT22;4094;49.948;11.574;2023-08-08T08:06:22;19.30;72.40
8103;DHT22;4094;49.948;11.574;2023-08-08T08:08:51;19.40;72.20
8103;DHT22;4094;49.948;11.574;2023-08-08T08:11:20;19.50;72.30
8103;DHT22;4094;49.948;11.574;2023-08-08T08:13:49;19.60;71.60
8103;DHT22;4094;49.948;11.574;2023-08-08T08:16:20;19.70;71.80
8103;DHT22;4094;49.948;11.574;2023-08-08T08:18:50;19.80;70.90
8103;DHT22;4094;49.948;11.574;2023-08-08T08:21:20;19.90;71.40
8103;DHT22;4094;49.948;11.574;2023-08-08T08:23:49;20.00;71.20
8103;DHT22;4094;49.948;11.574;2023-08-08T08:26:19;20.00;70.20
8103;DHT22;4094;49.948;11.574;2023-08-08T08:28:50;20.00;70.10
8103;DHT22;4094;49.948;11.574;2023-08-08T08:31:20;20.10;69.90
8103;DHT22;4094;49.948;11.574;2023-08-08T08:33:52;20.10;69.20
8103;DHT22;4094;49.948;11.574;2023-08-08T08:36:23;20.20;69.30
8103;DHT22;4094;49.948;11.574;2023-08-08T08:38:53;20.20;69.10
8103;DHT22;4094;49.948;11.574;2023-08-08T08:41:27;20.40;69.10
8103;DHT22;4094;49.948;11.574;2023-08-08T08:43:56;20.40;68.40
8103;DHT22;4094;49.948;11.574;2023-08-08T08:46:28;20.50;67.60
8103;DHT22;4094;49.948;11.574;2023-08-08T08:48:58;20.60;67.00
8103;DHT22;4094;49.948;11.574;2023-08-08T08:51:28;20.60;66.10
8103;DHT22;4094;49.948;11.574;2023-08-08T08:53:59;20.70;66.40
8103;DHT22;4094;49.948;11.574;2023-08-08T08:56:28;20.70;65.70
8103;DHT22;4094;49.948;11.574;2023-08-08T08:58:58;20.80;65.30
8103;DHT22;4094;49.948;11.574;2023-08-08T09:01:29;20.80;63.70
8103;DHT22;4094;49.948;11.574;2023-08-08T09:03:59;20.90;63.90
8103;DHT22;4094;49.948;11.574;2023-08-08T09:06:28;20.90;62.80
8103;DHT22;4094;49.948;11.574;2023-08-08T09:08:58;20.90;63.00
8103;DHT22;4094;49.948;11.574;2023-08-08T09:11:43;20.90;63.30
8103;DHT22;4094;49.948;11.574;2023-08-08T09:14:17;20.90;60.90
8103;DHT22;4094;49.948;11.574;2023-08-08T09:16:49;20.90;61.10
8103;DHT22;4094;49.948;11.574;2023-08-08T09:19:19;21.00;61.10
8103;DHT22;4094;49.948;11.574;2023-08-08T09:21:50;21.00;60.60
8103;DHT22;4094;49.948;11.574;2023-08-08T09:24:20;21.00;61.50
8103;DHT22;4094;49.948;11.574;2023-08-08T09:26:49;21.10;61.40
8103;DHT22;4094;49.948;11.574;2023-08-08T09:29:18;21.10;59.50
8103;DHT22;4094;49.948;11.574;2023-08-08T09:31:50;21.10;59.50
8103;DHT22;4094;49.948;11.574;2023-08-08T09:34:24;21.10;59.20
8103;DHT22;4094;49.948;11.574;2023-08-08T09:36:54;21.10;58.70
8103;DHT22;4094;49.948;11.574;2023-08-08T09:39:23;21.10;59.30
8103;DHT22;4094;49.948;11.574;2023-08-08T09:41:53;21.10;59.10
8103;DHT22;4094;49.948;11.574;2023-08-08T09:44:23;21.10;58.50
8103;DHT22;4094;49.948;11.574;2023-08-08T09:46:56;21.10;58.50
8103;DHT22;4094;49.948;11.574;2023-08-08T09:49:25;21.10;57.30
8103;DHT22;4094;49.948;11.574;2023-08-08T09:51:55;21.10;57.80
8103;DHT22;4094;49.948;11.574;2023-08-08T09:54:25;21.20;58.20
8103;DHT22;4094;49.948;11.574;2023-08-08T09:56:55;21.20;58.70
8103;DHT22;4094;49.948;11.574;2023-08-08T09:59:25;21.30;58.70
8103;DHT22;4094;49.948;11.574;2023-08-08T10:01:57;21.40;58.50
8103;DHT22;4094;49.948;11.574;2023-08-08T10:04:26;21.40;58.50
8103;DHT22;4094;49.948;11.574;2023-08-08T10:06:56;21.50;59.00
8103;DHT22;4094;49.948;11.574;2023-08-08T10:09:25;21.50;57.80
8103;DHT22;4094;49.948;11.574;2023-08-08T10:11:56;21.50;57.40
8103;DHT22;4094;49.948;11.574;2023-08-08T10:14:29;21.60;57.60
8103;DHT22;4094;49.948;11.574;2023-08-08T10:17:02;21.60;56.50
8103;DHT22;4094;49.948;11.574;2023-08-08T10:19:32;21.70;56.30
8103;DHT22;4094;49.948;11.574;2023-08-08T10:22:04;21.70;55.80
8103;DHT22;4094;49.948;11.574;2023-08-08T10:24:34;21.60;56.10
8103;DHT22;4094;49.948;11.574;2023-08-08T10:27:04;21.60;55.80
8103;DHT22;4094;49.948;11.574;2023-08-08T10:29:38;21.60;55.40
8103;DHT22;4094;49.948;11.574;2023-08-08T10:32:09;21.60;55.20
8103;DHT22;4094;49.948;11.574;2023-08-08T10:34:40;21.60;55.40
8103;DHT22;4094;49.948;11.574;2023-08-08T10:37:10;21.60;55.40
8103;DHT22;4094;49.948;11.574;2023-08-08T10:39:51;21.60;55.60
8103;DHT22;4094;49.948;11.574;2023-08-08T10:42:22;21.70;54.60
8103;DHT22;4094;49.948;11.574;2023-08-08T10:44:52;21.80;54.50
8103;DHT22;4094;49.948;11.574;2023-08-08T10:47:24;21.80;54.70
8103;DHT22;4094;49.948;11.574;2023-08-08T10:50:03;21.90;54.40
8103;DHT22;4094;49.948;11.574;2023-08-08T10:52:38;22.00;54.60
8103;DHT22;4094;49.948;11.574;2023-08-08T10:55:20;22.00;53.80
8103;DHT22;4094;49.948;11.574;2023-08-08T10:57:57;22.00;54.30
8103;DHT22;4094;49.948;11.574;2023-08-08T11:00:29;22.10;54.00
8103;DHT22;4094;49.948;11.574;2023-08-08T11:03:01;22.10;54.50
8103;DHT22;4094;49.948;11.574;2023-08-08T11:05:34;22.10;54.40
8103;DHT22;4094;49.948;11.574;2023-08-08T11:08:05;22.10;54.60
8103;DHT22;4094;49.948;11.574;2023-08-08T11:10:35;22.20;54.50
8103;DHT22;4094;49.948;11.574;2023-08-08T11:13:06;22.20;54.20
8103;DHT22;4094;49.948;11.574;2023-08-08T11:15:36;22.20;54.20
8103;DHT22;4094;49.948;11.574;2023-08-08T11:18:08;22.20;54.20
8103;DHT22;4094;49.948;11.574;2023-08-08T11:20:37;22.10;53.90
8103;DHT22;4094;49.948;11.574;2023-08-08T11:23:07;22.10;53.80
8103;DHT22;4094;49.948;11.574;2023-08-08T11:25:40;22.10;53.50
8103;DHT22;4094;49.948;11.574;2023-08-08T11:28:11;22.10;53.60
8103;DHT22;4094;49.948;11.574;2023-08-08T11:30:42;22.20;53.80
8103;DHT22;4094;49.948;11.574;2023-08-08T11:33:14;22.20;53.80
8103;DHT22;4094;49.948;11.574;2023-08-08T11:35:46;22.20;53.90
8103;DHT22;4094;49.948;11.574;2023-08-08T11:38:17;22.30;53.60
8103;DHT22;4094;49.948;11.574;2023-08-08T11:40:47;22.30;53.50
8103;DHT22;4094;49.948;11.574;2023-08-08T11:43:16;22.30;53.40
8103;DHT22;4094;49.948;11.574;2023-08-08T11:45:46;22.40;52.90
8103;DHT22;4094;49.948;11.574;2023-08-08T11:48:20;22.40;53.40
8103;DHT22;4094;49.948;11.574;2023-08-08T11:50:52;22.40;53.50
8103;DHT22;4094;49.948;11.574;2023-08-08T11:53:23;22.40;53.00
8103;DHT22;4094;49.948;11.574;2023-08-08T11:55:52;22.50;53.10
8103;DHT22;4094;49.948;11.574;2023-08-08T11:58:23;22.50;52.90
8103;DHT22;4094;49.948;11.574;2023-08-08T12:00:53;22.60;52.50
8103;DHT22;4094;49.948;11.574;2023-08-08T12:03:26;22.60;52.40
8103;DHT22;4094;49.948;11.574;2023-08-08T12:05:55;22.60;52.80
8103;DHT22;4094;49.948;11.574;2023-08-08T12:08:24;22.60;52.70
8103;DHT22;4094;49.948;11.574;2023-08-08T12:10:53;22.70;53.00
8103;DHT22;4094;49.948;11.574;2023-08-08T12:13:24;22.70;51.10
8103;DHT22;4094;49.948;11.574;2023-08-08T12:15:54;22.70;51.30
8103;DHT22;4094;49.948;11.574;2023-08-08T12:18:26;22.80;51.20
8103;DHT22;4094;49.948;11.574;2023-08-08T12:20:55;22.80;51.50
8103;DHT22;4094;49.948;11.574;2023-08-08T12:23:26;22.80;51.20
8103;DHT22;4094;49.948;11.574;2023-08-08T12:25:57;22.80;51.30
8103;DHT22;4094;49.948;11.574;2023-08-08T12:28:26;22.80;51.30
8103;DHT22;4094;49.948;11.574;2023-08-08T12:30:55;22.80;51.00
8103;DHT22;4094;49.948;11.574;2023-08-08T12:33:26;22.80;50.90
8103;DHT22;4094;49.948;11.574;2023-08-08T12:35:55;22.80;50.40
8103;DHT22;4094;49.948;11.574;2023-08-08T12:38:24;22.80;49.80
8103;DHT22;4094;49.948;11.574;2023-08-08T12:40:53;22.80;50.10
8103;DHT22;4094;49.948;11.574;2023-08-08T12:43:22;22.80;50.70
8103;DHT22;4094;49.948;11.574;2023-08-08T12:45:52;22.70;50.70
8103;DHT22;4094;49.948;11.574;2023-08-08T12:48:21;22.80;50.70
8103;DHT22;4094;49.948;11.574;2023-08-08T12:50:51;22.80;51.30
8103;DHT22;4094;49.948;11.574;2023-08-08T12:53:21;22.80;51.10
8103;DHT22;4094;49.948;11.574;2023-08-08T12:55:50;22.80;51.20
8103;DHT22;4094;49.948;11.574;2023-08-08T12:58:19;22.80;50.30
8103;DHT22;4094;49.948;11.574;2023-08-08T13:00:50;22.90;50.50
8103;DHT22;4094;49.948;11.574;2023-08-08T13:03:20;22.90;50.30
8103;DHT22;4094;49.948;11.574;2023-08-08T13:05:50;22.90;50.10
8103;DHT22;4094;49.948;11.574;2023-08-08T13:08:20;22.90;50.00
8103;DHT22;4094;49.948;11.574;2023-08-08T13:10:49;22.90;49.80
8103;DHT22;4094;49.948;11.574;2023-08-08T13:13:19;22.90;49.30
8103;DHT22;4094;49.948;11.574;2023-08-08T13:15:51;22.90;49.60
8103;DHT22;4094;49.948;11.574;2023-08-08T13:18:20;22.90;50.40
8103;DHT22;4094;49.948;11.574;2023-08-08T13:20:50;23.00;50.40
8103;DHT22;4094;49.948;11.574;2023-08-08T13:23:20;23.00;49.70
8103;DHT22;4094;49.948;11.574;2023-08-08T13:25:49;23.00;49.80
8103;DHT22;4094;49.948;11.574;2023-08-08T13:28:18;23.10;49.60
8103;DHT22;4094;49.948;11.574;2023-08-08T13:30:47;23.20;49.90
8103;DHT22;4094;49.948;11.574;2023-08-08T13:33:16;23.20;49.50
8103;DHT22;4094;49.948;11.574;2023-08-08T13:35:46;23.20;49.30
8103;DHT22;4094;49.948;11.574;2023-08-08T13:38:20;23.10;48.60
8103;DHT22;4094;49.948;11.574;2023-08-08T13:40:51;23.10;48.60
8103;DHT22;4094;49.948;11.574;2023-08-08T13:43:21;23.10;48.40
8103;DHT22;4094;49.948;11.574;2023-08-08T13:45:51;23.00;48.50
8103;DHT22;4094;49.948;11.574;2023-08-08T13:48:20;23.00;48.70
8103;DHT22;4094;49.948;11.574;2023-08-08T13:50:50;22.90;48.90
8103;DHT22;4094;49.948;11.574;2023-08-08T13:53:21;22.90;48.40
8103;DHT22;4094;49.948;11.574;2023-08-08T13:55:50;22.90;48.90
8103;DHT22;4094;49.948;11.574;2023-08-08T13:58:19;22.80;48.80
8103;DHT22;4094;49.948;11.574;2023-08-08T14:00:50;22.80;48.80
8103;DHT22;4094;49.948;11.574;2023-08-08T14:03:19;22.80;48.70
8103;DHT22;4094;49.948;11.574;2023-08-08T14:05:49;22.70;48.70
8103;DHT22;4094;49.948;11.574;2023-08-08T14:08:21;22.70;48.80
8103;DHT22;4094;49.948;11.574;2023-08-08T14:10:51;22.70;49.00
8103;DHT22;4094;49.948;11.574;2023-08-08T14:13:20;22.60;48.90
8103;DHT22;4094;49.948;11.574;2023-08-08T14:15:49;22.60;48.70
8103;DHT22;4094;49.948;11.574;2023-08-08T14:18:20;22.60;48.70
8103;DHT22;4094;49.948;11.574;2023-08-08T14:20:49;22.60;48.80
8103;DHT22;4094;49.948;11.574;2023-08-08T14:23:19;22.50;48.40
8103;DHT22;4094;49.948;11.574;2023-08-08T14:25:50;22.50;48.30
8103;DHT22;4094;49.948;11.574;2023-08-08T14:28:20;22.50;48.30
8103;DHT22;4094;49.948;11.574;2023-08-08T14:30:50;22.40;48.40
8103;DHT22;4094;49.948;11.574;2023-08-08T14:33:19;22.40;48.80
8103;DHT22;4094;49.948;11.574;2023-08-08T14:35:49;22.40;48.60
8103;DHT22;4094;49.948;11.574;2023-08-08T14:38:18;22.30;48.80
8103;DHT22;4094;49.948;11.574;2023-08-08T14:40:47;22.30;48.80
8103;DHT22;4094;49.948;11.574;2023-08-08T14:43:18;22.30;49.10
8103;DHT22;4094;49.948;11.574;2023-08-08T14:45:47;22.30;49.00
8103;DHT22;4094;49.948;11.574;2023-08-08T14:48:16;22.30;49.20
8103;DHT22;4094;49.948;11.574;2023-08-08T14:50:45;22.30;49.70
8103;DHT22;4094;49.948;11.574;2023-08-08T14:53:14;22.40;50.10
8103;DHT22;4094;49.948;11.574;2023-08-08T14:55:44;22.40;49.90
8103;DHT22;4094;49.948;11.574;2023-08-08T14:58:13;22.50;49.60
8103;DHT22;4094;49.948;11.574;2023-08-08T15:00:43;22.50;49.70
8103;DHT22;4094;49.948;11.574;2023-08-08T15:03:13;22.50;49.70
8103;DHT22;4094;49.948;11.574;2023-08-08T15:05:42;22.50;49.30
8103;DHT22;4094;49.948;11.574;2023-08-08T15:08:13;22.50;49.20
8103;DHT22;4094;49.948;11.574;2023-08-08T15:10:42;22.50;48.90
8103;DHT22;4094;49.948;11.574;2023-08-08T15:13:11;22.50;49.20
8103;DHT22;4094;49.948;11.574;2023-08-08T15:15:40;22.50;49.30
8103;DHT22;4094;49.948;11.574;2023-08-08T15:18:14;22.50;49.30
8103;DHT22;4094;49.948;11.574;2023-08-08T15:20:43;22.60;49.10
8103;DHT22;4094;49.948;11.574;2023-08-08T15:23:12;22.60;49.00
8103;DHT22;4094;49.948;11.574;2023-08-08T15:25:42;22.60;48.10
8103;DHT22;4094;49.948;11.574;2023-08-08T15:28:11;22.60;48.40
8103;DHT22;4094;49.948;11.574;2023-08-08T15:30:41;22.50;48.20
8103;DHT22;4094;49.948;11.574;2023-08-08T15:33:11;22.50;47.90
8103;DHT22;4094;49.948;11.574;2023-08-08T15:35:40;22.40;48.10
8103;DHT22;4094;49.948;11.574;2023-08-08T15:38:09;22.40;48.50
8103;DHT22;4094;49.948;11.574;2023-08-08T15:40:39;22.40;48.60
8103;DHT22;4094;49.948;11.574;2023-08-08T15:43:08;22.40;48.70
8103;DHT22;4094;49.948;11.574;2023-08-08T15:45:37;22.40;48.70
8103;DHT22;4094;49.948;11.574;2023-08-08T15:48:07;22.40;48.90
8103;DHT22;4094;49.948;11.574;2023-08-08T15:50:38;22.40;49.10
8103;DHT22;4094;49.948;11.574;2023-08-08T15:53:07;22.40;49.20
8103;DHT22;4094;49.948;11.574;2023-08-08T15:55:38;22.30;49.10
8103;DHT22;4094;49.948;11.574;2023-08-08T15:58:07;22.30;49.00
8103;DHT22;4094;49.948;11.574;2023-08-08T16:00:37;22.30;49.30
8103;DHT22;4094;49.948;11.574;2023-08-08T16:03:06;22.30;49.50